sensor_id;sensor_type;location;lat;lon;timestamp;temperature;humidity
24035;DHT22;12242;50.952;4.678;2023-07-13T00:00:03;15.80;99.90
24035;DHT22;12242;50.952;4.678;2023-07-13T00:02:35;16.00;99.90
24035;DHT22;12242;50.952;4.678;2023-07-13T00:05:06;15.90;99.90
24035;DHT22;12242;50.952;4.678;2023-07-13T00:07:35;15.80;99.90
24035;DHT22;12242;50.952;4.678;2023-07-13T00:10:04;16.00;99.90
24035;DHT22;12242;50.952;4.678;2023-07-13T00:12:35;16.00;99.90
24035;DHT22;12242;50.952;4.678;2023-07-13T00:15:10;15.90;99.90
24035;DHT22;12242;50.952;4.678;2023-07-13T00:17:43;15.80;99.90
24035;DHT22;12242;50.952;4.678;2023-07-13T00:20:17;15.80;99.90
24035;DHT22;12242;50.952;4.678;2023-07-13T00:22:45;15.80;99.90
24035;DHT22;12242;50.952;4.678;2023-07-13T00:25:12;15.80;99.90
24035;DHT22;12242;50.952;4.678;2023-07-13T00:27:44;15.90;99.90
24035;DHT22;12242;50.952;4.678;2023-07-13T00:30:12;15.90;99.90
24035;DHT22;12242;50.952;4.678;2023-07-13T00:32:39;15.80;99.90
24035;DHT22;12242;50.952;4.678;2023-07-13T00:35:08;15.90;99.90
24035;DHT22;12242;50.952;4.678;2023-07-13T00:37:36;15.80;99.90
24035;DHT22;12242;50.952;4.678;2023-07-13T00:40:04;15.70;99.90
24035;DHT22;12242;50.952;4.678;2023-07-13T00:42:33;15.70;99.90
24035;DHT22;12242;50.952;4.678;2023-07-13T00:47:41;15.60;99.90
24035;DHT22;12242;50.952;4.678;2023-07-13T00:50:15;15.50;99.90
24035;DHT22;12242;50.952;4.678;2023-07-13T00:52:48;15.50;99.90
24035;DHT22;12242;50.952;4.678;2023-07-13T00:55:16;15.50;99.90
24035;DHT22;12242;50.952;4.678;2023-07-13T00:57:44;15.50;99.90
24035;DHT22;12242;50.952;4.678;2023-07-13T01:00:12;15.50;99.90
24035;DHT22;12242;50.952;4.678;2023-07-13T01:02:44;15.50;99.90
24035;DHT22;12242;50.952;4.678;2023-07-13T01:05:15;15.50;99.90
24035;DHT22;12242;50.952;4.678;2023-07-13T01:07:44;15.60;99.90
24035;DHT22;12242;50.952;4.678;2023-07-13T01:10:13;15.60;99.90
24035;DHT22;12242;50.952;4.678;2023-07-13T01:12:40;15.60;99.90
24035;DHT22;12242;50.952;4.678;2023-07-13T01:15:37;15.60;99.90
24035;DHT22;12242;50.952;4.678;2023-07-13T01:18:09;15.60;99.90
24035;DHT22;12242;50.952;4.678;2023-07-13T01:20:37;15.60;99.90
24035;DHT22;12242;50.952;4.678;2023-07-13T01:23:07;15.50;99.90
24035;DHT22;12242;50.952;4.678;2023-07-13T01:25:37;15.40;99.90
24035;DHT22;12242;50.952;4.678;2023-07-13T01:28:07;15.50;99.90
24035;DHT22;12242;50.952;4.678;2023-07-13T01:30:39;15.50;99.90
24035;DHT22;12242;50.952;4.678;2023-07-13T01:33:09;15.30;99.90
24035;DHT22;12242;50.952;4.678;2023-07-13T01:35:37;15.20;99.90
24035;DHT22;12242;50.952;4.678;2023-07-13T01:38:05;15.20;99.90
24035;DHT22;12242;50.952;4.678;2023-07-13T01:40:34;15.10;99.90
24035;DHT22;12242;50.952;4.678;2023-07-13T01:43:03;15.00;99.90
24035;DHT22;12242;50.952;4.678;2023-07-13T01:45:31;14.90;99.90
24035;DHT22;12242;50.952;4.678;2023-07-13T01:47:58;14.90;99.90
24035;DHT22;12242;50.952;4.678;2023-07-13T01:50:27;15.00;99.90
24035;DHT22;12242;50.952;4.678;2023-07-13T01:52:55;14.90;99.90
24035;DHT22;12242;50.952;4.678;2023-07-13T01:55:23;15.00;99.90
24035;DHT22;12242;50.952;4.678;2023-07-13T01:57:51;15.10;99.90
24035;DHT22;12242;50.952;4.678;2023-07-13T02:00:19;15.20;99.90
24035;DHT22;12242;50.952;4.678;2023-07-13T02:02:47;15.10;99.90
24035;DHT22;12242;50.952;4.678;2023-07-13T02:05:15;15.00;99.90
24035;DHT22;12242;50.952;4.678;2023-07-13T02:07:43;15.10;99.90
24035;DHT22;12242;50.952;4.678;2023-07-13T02:10:11;15.20;99.90
24035;DHT22;12242;50.952;4.678;2023-07-13T02:12:38;15.50;99.90
24035;DHT22;12242;50.952;4.678;2023-07-13T02:15:07;15.60;99.90
24035;DHT22;12242;50.952;4.678;2023-07-13T02:17:35;15.80;99.90
24035;DHT22;12242;50.952;4.678;2023-07-13T02:20:04;15.90;99.90
24035;DHT22;12242;50.952;4.678;2023-07-13T02:22:32;15.90;99.90
24035;DHT22;12242;50.952;4.678;2023-07-13T02:25:00;16.10;99.90
24035;DHT22;12242;50.952;4.678;2023-07-13T02:27:33;16.30;99.90
24035;DHT22;12242;50.952;4.678;2023-07-13T02:30:01;16.30;99.90
24035;DHT22;12242;50.952;4.678;2023-07-13T02:32:28;16.40;99.90
24035;DHT22;12242;50.952;4.678;2023-07-13T02:34:56;16.40;99.90
24035;DHT22;12242;50.952;4.678;2023-07-13T02:37:24;16.40;99.90
24035;DHT22;12242;50.952;4.678;2023-07-13T02:39:52;16.40;99.90
24035;DHT22;12242;50.952;4.678;2023-07-13T02:42:20;16.30;99.90
24035;DHT22;12242;50.952;4.678;2023-07-13T02:44:48;16.20;99.90
24035;DHT22;12242;50.952;4.678;2023-07-13T02:47:17;15.90;99.90
24035;DHT22;12242;50.952;4.678;2023-07-13T02:49:44;15.80;99.90
24035;DHT22;12242;50.952;4.678;2023-07-13T02:52:12;15.80;99.90
24035;DHT22;12242;50.952;4.678;2023-07-13T02:54:40;15.90;99.90
24035;DHT22;12242;50.952;4.678;2023-07-13T02:57:07;15.90;99.90
24035;DHT22;12242;50.952;4.678;2023-07-13T02:59:36;15.80;99.90
24035;DHT22;12242;50.952;4.678;2023-07-13T03:02:04;16.00;99.90
24035;DHT22;12242;50.952;4.678;2023-07-13T03:04:32;16.10;99.90
24035;DHT22;12242;50.952;4.678;2023-07-13T03:06:59;15.90;99.90
24035;DHT22;12242;50.952;4.678;2023-07-13T03:09:27;16.00;99.90
24035;DHT22;12242;50.952;4.678;2023-07-13T03:11:55;16.20;99.90
24035;DHT22;12242;50.952;4.678;2023-07-13T03:14:23;16.20;99.90
24035;DHT22;12242;50.952;4.678;2023-07-13T03:16:51;16.00;99.90
24035;DHT22;12242;50.952;4.678;2023-07-13T03:19:22;16.00;99.90
24035;DHT22;12242;50.952;4.678;2023-07-13T03:21:50;15.80;99.90
24035;DHT22;12242;50.952;4.678;2023-07-13T03:24:18;15.90;99.90
24035;DHT22;12242;50.952;4.678;2023-07-13T03:26:45;16.10;99.90
24035;DHT22;12242;50.952;4.678;2023-07-13T03:29:13;16.40;99.90
24035;DHT22;12242;50.952;4.678;2023-07-13T03:31:41;16.30;99.90
24035;DHT22;12242;50.952;4.678;2023-07-13T03:34:09;16.20;99.90
24035;DHT22;12242;50.952;4.678;2023-07-13T03:36:37;16.10;99.90
24035;DHT22;12242;50.952;4.678;2023-07-13T03:39:04;16.20;99.90
24035;DHT22;12242;50.952;4.678;2023-07-13T03:41:36;16.20;99.90
24035;DHT22;12242;50.952;4.678;2023-07-13T03:44:04;16.30;99.90
24035;DHT22;12242;50.952;4.678;2023-07-13T03:46:33;16.30;99.90
24035;DHT22;12242;50.952;4.678;2023-07-13T03:49:01;16.30;99.90
24035;DHT22;12242;50.952;4.678;2023-07-13T03:51:29;16.40;99.90
24035;DHT22;12242;50.952;4.678;2023-07-13T03:54:02;16.30;99.90
24035;DHT22;12242;50.952;4.678;2023-07-13T03:56:30;16.10;99.90
24035;DHT22;12242;50.952;4.678;2023-07-13T03:58:59;16.00;99.90
24035;DHT22;12242;50.952;4.678;2023-07-13T04:01:27;16.10;99.90
24035;DHT22;12242;50.952;4.678;2023-07-13T04:04:00;16.30;99.90
24035;DHT22;12242;50.952;4.678;2023-07-13T04:06:31;16.40;99.90
24035;DHT22;12242;50.952;4.678;2023-07-13T04:09:00;16.20;99.90
24035;DHT22;12242;50.952;4.678;2023-07-13T04:11:30;16.20;99.90
24035;DHT22;12242;50.952;4.678;2023-07-13T04:13:59;16.40;99.90
24035;DHT22;12242;50.952;4.678;2023-07-13T04:16:27;16.60;99.90
24035;DHT22;12242;50.952;4.678;2023-07-13T04:18:57;16.60;99.90
24035;DHT22;12242;50.952;4.678;2023-07-13T04:21:31;16.50;99.90
24035;DHT22;12242;50.952;4.678;2023-07-13T04:23:59;16.40;99.90
24035;DHT22;12242;50.952;4.678;2023-07-13T04:26:27;16.50;99.90
24035;DHT22;12242;50.952;4.678;2023-07-13T04:28:56;16.60;99.90
24035;DHT22;12242;50.952;4.678;2023-07-13T04:31:23;16.50;99.90
24035;DHT22;12242;50.952;4.678;2023-07-13T04:33:52;16.40;99.90
24035;DHT22;12242;50.952;4.678;2023-07-13T04:36:20;16.50;99.90
24035;DHT22;12242;50.952;4.678;2023-07-13T04:38:48;16.60;99.90
24035;DHT22;12242;50.952;4.678;2023-07-13T04:41:16;16.60;99.90
24035;DHT22;12242;50.952;4.678;2023-07-13T04:43:44;16.80;99.90
24035;DHT22;12242;50.952;4.678;2023-07-13T04:46:14;16.70;99.90
24035;DHT22;12242;50.952;4.678;2023-07-13T04:48:42;16.70;99.90
24035;DHT22;12242;50.952;4.678;2023-07-13T04:51:10;16.70;99.90
24035;DHT22;12242;50.952;4.678;2023-07-13T04:53:39;16.70;99.90
24035;DHT22;12242;50.952;4.678;2023-07-13T04:56:06;16.70;99.90
24035;DHT22;12242;50.952;4.678;2023-07-13T04:58:34;16.70;99.90
24035;DHT22;12242;50.952;4.678;2023-07-13T05:01:03;16.80;99.90
24035;DHT22;12242;50.952;4.678;2023-07-13T05:03:34;17.00;99.90
24035;DHT22;12242;50.952;4.678;2023-07-13T05:06:06;17.00;99.90
24035;DHT22;12242;50.952;4.678;2023-07-13T05:08:34;17.10;99.90
24035;DHT22;12242;50.952;4.678;2023-07-13T05:11:03;17.00;99.90
24035;DHT22;12242;50.952;4.678;2023-07-13T05:13:31;17.00;99.90
24035;DHT22;12242;50.952;4.678;2023-07-13T05:16:05;17.10;99.90
24035;DHT22;12242;50.952;4.678;2023-07-13T05:18:36;17.30;99.90
24035;DHT22;12242;50.952;4.678;2023-07-13T05:21:10;17.20;99.90
24035;DHT22;12242;50.952;4.678;2023-07-13T05:23:40;17.30;99.90
24035;DHT22;12242;50.952;4.678;2023-07-13T05:26:09;17.10;99.90
24035;DHT22;12242;50.952;4.678;2023-07-13T05:28:38;17.00;99.90
24035;DHT22;12242;50.952;4.678;2023-07-13T05:31:10;17.10;99.90
24035;DHT22;12242;50.952;4.678;2023-07-13T05:33:39;17.20;99.90
24035;DHT22;12242;50.952;4.678;2023-07-13T05:36:10;17.10;99.90
24035;DHT22;12242;50.952;4.678;2023-07-13T05:38:37;17.20;99.90
24035;DHT22;12242;50.952;4.678;2023-07-13T05:41:09;17.10;99.90
24035;DHT22;12242;50.952;4.678;2023-07-13T05:43:38;17.40;99.90
24035;DHT22;12242;50.952;4.678;2023-07-13T05:46:06;17.50;99.90
24035;DHT22;12242;50.952;4.678;2023-07-13T05:48:34;17.40;99.90
24035;DHT22;12242;50.952;4.678;2023-07-13T05:51:06;17.50;99.90
24035;DHT22;12242;50.952;4.678;2023-07-13T05:53:34;17.60;99.90
24035;DHT22;12242;50.952;4.678;2023-07-13T05:56:08;17.70;99.90
24035;DHT22;12242;50.952;4.678;2023-07-13T05:58:36;17.90;99.90
24035;DHT22;12242;50.952;4.678;2023-07-13T06:01:10;18.00;99.90
24035;DHT22;12242;50.952;4.678;2023-07-13T06:03:39;18.00;99.90
24035;DHT22;12242;50.952;4.678;2023-07-13T06:06:09;17.80;99.90
24035;DHT22;12242;50.952;4.678;2023-07-13T06:08:38;18.00;99.90
24035;DHT22;12242;50.952;4.678;2023-07-13T06:11:14;17.90;99.90
24035;DHT22;12242;50.952;4.678;2023-07-13T06:13:42;18.00;99.90
24035;DHT22;12242;50.952;4.678;2023-07-13T06:16:12;18.20;99.90
24035;DHT22;12242;50.952;4.678;2023-07-13T06:18:41;18.40;99.90
24035;DHT22;12242;50.952;4.678;2023-07-13T06:21:13;18.30;99.90
24035;DHT22;12242;50.952;4.678;2023-07-13T06:23:42;18.10;99.90
24035;DHT22;12242;50.952;4.678;2023-07-13T06:26:11;17.90;99.90
24035;DHT22;12242;50.952;4.678;2023-07-13T06:28:39;18.00;99.90
24035;DHT22;12242;50.952;4.678;2023-07-13T06:31:08;18.00;99.90
24035;DHT22;12242;50.952;4.678;2023-07-13T06:33:37;18.10;99.90
24035;DHT22;12242;50.952;4.678;2023-07-13T06:36:07;18.50;99.90
24035;DHT22;12242;50.952;4.678;2023-07-13T06:38:35;18.60;99.90
24035;DHT22;12242;50.952;4.678;2023-07-13T06:41:04;18.50;99.90
24035;DHT22;12242;50.952;4.678;2023-07-13T06:43:32;18.60;99.90
24035;DHT22;12242;50.952;4.678;2023-07-13T06:46:00;18.70;99.90
24035;DHT22;12242;50.952;4.678;2023-07-13T06:48:28;18.70;99.90
24035;DHT22;12242;50.952;4.678;2023-07-13T06:50:58;19.00;99.90
24035;DHT22;12242;50.952;4.678;2023-07-13T06:53:25;19.30;99.90
24035;DHT22;12242;50.952;4.678;2023-07-13T06:55:53;19.50;99.90
24035;DHT22;12242;50.952;4.678;2023-07-13T06:58:21;19.60;99.90
24035;DHT22;12242;50.952;4.678;2023-07-13T07:00:52;19.90;99.90
24035;DHT22;12242;50.952;4.678;2023-07-13T07:03:20;20.00;99.90
24035;DHT22;12242;50.952;4.678;2023-07-13T07:05:49;20.10;99.90
24035;DHT22;12242;50.952;4.678;2023-07-13T07:08:16;20.20;99.90
24035;DHT22;12242;50.952;4.678;2023-07-13T07:10:44;20.60;99.90
24035;DHT22;12242;50.952;4.678;2023-07-13T07:13:12;20.60;99.90
24035;DHT22;12242;50.952;4.678;2023-07-13T07:15:40;20.80;99.90
24035;DHT22;12242;50.952;4.678;2023-07-13T07:18:08;20.80;99.90
24035;DHT22;12242;50.952;4.678;2023-07-13T07:20:36;21.30;99.90
24035;DHT22;12242;50.952;4.678;2023-07-13T07:23:06;21.50;99.90
24035;DHT22;12242;50.952;4.678;2023-07-13T07:25:34;21.70;99.90
24035;DHT22;12242;50.952;4.678;2023-07-13T07:28:08;21.90;99.90
24035;DHT22;12242;50.952;4.678;2023-07-13T07:30:42;21.80;99.90
24035;DHT22;12242;50.952;4.678;2023-07-13T07:33:21;22.00;99.90
24035;DHT22;12242;50.952;4.678;2023-07-13T07:35:49;22.10;99.90
24035;DHT22;12242;50.952;4.678;2023-07-13T07:38:20;22.00;99.90
24035;DHT22;12242;50.952;4.678;2023-07-13T07:40:51;22.50;99.90
24035;DHT22;12242;50.952;4.678;2023-07-13T07:43:22;22.80;99.90
24035;DHT22;12242;50.952;4.678;2023-07-13T07:45:53;23.10;99.90
24035;DHT22;12242;50.952;4.678;2023-07-13T07:48:21;23.10;99.90
24035;DHT22;12242;50.952;4.678;2023-07-13T07:50:49;23.40;99.90
24035;DHT22;12242;50.952;4.678;2023-07-13T07:53:16;23.40;99.90
24035;DHT22;12242;50.952;4.678;2023-07-13T07:55:44;23.90;99.90
24035;DHT22;12242;50.952;4.678;2023-07-13T07:58:15;24.20;99.90
24035;DHT22;12242;50.952;4.678;2023-07-13T08:01:07;24.80;99.90
24035;DHT22;12242;50.952;4.678;2023-07-13T08:03:39;25.10;99.90
24035;DHT22;12242;50.952;4.678;2023-07-13T08:06:10;25.40;99.90
24035;DHT22;12242;50.952;4.678;2023-07-13T08:08:58;26.60;99.90
24035;DHT22;12242;50.952;4.678;2023-07-13T08:11:28;27.70;99.90
24035;DHT22;12242;50.952;4.678;2023-07-13T08:14:01;29.60;99.90
24035;DHT22;12242;50.952;4.678;2023-07-13T08:16:29;31.10;97.10
24035;DHT22;12242;50.952;4.678;2023-07-13T08:18:56;32.30;92.80
24035;DHT22;12242;50.952;4.678;2023-07-13T08:21:27;31.90;89.30
24035;DHT22;12242;50.952;4.678;2023-07-13T08:23:55;30.70;92.60
24035;DHT22;12242;50.952;4.678;2023-07-13T08:26:25;30.40;92.70
24035;DHT22;12242;50.952;4.678;2023-07-13T08:28:56;30.80;91.00
24035;DHT22;12242;50.952;4.678;2023-07-13T08:31:23;28.50;92.80
24035;DHT22;12242;50.952;4.678;2023-07-13T08:33:50;27.50;95.30
24035;DHT22;12242;50.952;4.678;2023-07-13T08:36:20;26.90;98.60
24035;DHT22;12242;50.952;4.678;2023-07-13T08:38:49;29.20;95.50
24035;DHT22;12242;50.952;4.678;2023-07-13T08:41:18;29.60;93.40
24035;DHT22;12242;50.952;4.678;2023-07-13T08:43:49;30.20;92.10
24035;DHT22;12242;50.952;4.678;2023-07-13T08:49:04;30.40;92.80
24035;DHT22;12242;50.952;4.678;2023-07-13T08:51:49;31.50;90.90
24035;DHT22;12242;50.952;4.678;2023-07-13T08:56:56;31.50;84.80
24035;DHT22;12242;50.952;4.678;2023-07-13T08:59:27;30.20;86.30
24035;DHT22;12242;50.952;4.678;2023-07-13T09:05:03;26.80;93.90
24035;DHT22;12242;50.952;4.678;2023-07-13T09:08:00;25.70;97.20
24035;DHT22;12242;50.952;4.678;2023-07-13T09:10:37;26.80;98.80
24035;DHT22;12242;50.952;4.678;2023-07-13T09:13:28;29.60;94.30
24035;DHT22;12242;50.952;4.678;2023-07-13T09:16:02;30.50;90.40
24035;DHT22;12242;50.952;4.678;2023-07-13T09:18:37;30.80;86.90
24035;DHT22;12242;50.952;4.678;2023-07-13T09:23:37;28.90;88.40
24035;DHT22;12242;50.952;4.678;2023-07-13T09:26:26;28.70;91.80
24035;DHT22;12242;50.952;4.678;2023-07-13T09:29:14;30.90;89.90
24035;DHT22;12242;50.952;4.678;2023-07-13T09:31:49;32.60;84.70
24035;DHT22;12242;50.952;4.678;2023-07-13T09:34:20;33.40;80.40
24035;DHT22;12242;50.952;4.678;2023-07-13T09:36:48;32.70;80.80
24035;DHT22;12242;50.952;4.678;2023-07-13T09:39:30;31.50;78.60
24035;DHT22;12242;50.952;4.678;2023-07-13T09:42:15;30.10;85.10
24035;DHT22;12242;50.952;4.678;2023-07-13T09:44:53;28.90;86.40
24035;DHT22;12242;50.952;4.678;2023-07-13T09:47:27;27.30;90.30
24035;DHT22;12242;50.952;4.678;2023-07-13T09:50:09;26.60;91.80
24035;DHT22;12242;50.952;4.678;2023-07-13T09:52:48;26.50;95.30
24035;DHT22;12242;50.952;4.678;2023-07-13T09:55:35;28.60;93.00
24035;DHT22;12242;50.952;4.678;2023-07-13T09:58:15;29.60;85.30
24035;DHT22;12242;50.952;4.678;2023-07-13T10:00:58;29.50;87.10
24035;DHT22;12242;50.952;4.678;2023-07-13T10:03:30;30.00;87.20
24035;DHT22;12242;50.952;4.678;2023-07-13T10:06:17;30.70;84.40
24035;DHT22;12242;50.952;4.678;2023-07-13T10:08:49;30.10;82.30
24035;DHT22;12242;50.952;4.678;2023-07-13T10:11:21;27.80;87.00
24035;DHT22;12242;50.952;4.678;2023-07-13T10:13:56;27.00;92.60
24035;DHT22;12242;50.952;4.678;2023-07-13T10:16:34;28.40;90.70
24035;DHT22;12242;50.952;4.678;2023-07-13T10:19:08;28.00;90.60
24035;DHT22;12242;50.952;4.678;2023-07-13T10:21:50;28.60;90.00
24035;DHT22;12242;50.952;4.678;2023-07-13T10:32:25;25.30;94.60
24035;DHT22;12242;50.952;4.678;2023-07-13T10:34:53;27.30;92.60
24035;DHT22;12242;50.952;4.678;2023-07-13T10:37:26;28.00;91.90
24035;DHT22;12242;50.952;4.678;2023-07-13T10:39:56;29.50;88.60
24035;DHT22;12242;50.952;4.678;2023-07-13T10:42:32;29.80;84.90
24035;DHT22;12242;50.952;4.678;2023-07-13T10:45:01;29.00;84.10
24035;DHT22;12242;50.952;4.678;2023-07-13T10:47:30;28.20;89.90
24035;DHT22;12242;50.952;4.678;2023-07-13T10:50:00;29.70;88.00
24035;DHT22;12242;50.952;4.678;2023-07-13T10:52:46;29.70;83.30
24035;DHT22;12242;50.952;4.678;2023-07-13T10:55:34;31.10;87.00
24035;DHT22;12242;50.952;4.678;2023-07-13T10:58:22;30.90;77.50
24035;DHT22;12242;50.952;4.678;2023-07-13T11:01:00;28.80;81.40
24035;DHT22;12242;50.952;4.678;2023-07-13T11:03:30;27.20;87.50
24035;DHT22;12242;50.952;4.678;2023-07-13T11:06:08;26.10;90.60
24035;DHT22;12242;50.952;4.678;2023-07-13T11:08:52;26.00;92.90
24035;DHT22;12242;50.952;4.678;2023-07-13T11:14:08;25.40;94.40
24035;DHT22;12242;50.952;4.678;2023-07-13T11:16:52;25.00;94.00
24035;DHT22;12242;50.952;4.678;2023-07-13T11:22:11;27.60;92.60
24035;DHT22;12242;50.952;4.678;2023-07-13T11:27:38;28.30;86.90
24035;DHT22;12242;50.952;4.678;2023-07-13T11:38:34;24.50;99.10
24035;DHT22;12242;50.952;4.678;2023-07-13T11:41:15;26.00;98.70
24035;DHT22;12242;50.952;4.678;2023-07-13T11:43:45;26.40;96.10
24035;DHT22;12242;50.952;4.678;2023-07-13T11:46:49;27.50;96.60
24035;DHT22;12242;50.952;4.678;2023-07-13T11:49:26;29.30;93.60
24035;DHT22;12242;50.952;4.678;2023-07-13T11:51:56;29.20;88.80
24035;DHT22;12242;50.952;4.678;2023-07-13T11:54:43;28.70;90.50
24035;DHT22;12242;50.952;4.678;2023-07-13T11:57:32;28.30;91.20
24035;DHT22;12242;50.952;4.678;2023-07-13T12:00:09;28.20;91.90
24035;DHT22;12242;50.952;4.678;2023-07-13T12:02:42;26.90;92.40
24035;DHT22;12242;50.952;4.678;2023-07-13T12:05:15;26.30;92.40
24035;DHT22;12242;50.952;4.678;2023-07-13T12:07:44;25.90;92.80
24035;DHT22;12242;50.952;4.678;2023-07-13T12:10:29;25.20;93.90
24035;DHT22;12242;50.952;4.678;2023-07-13T12:12:58;24.80;94.50
24035;DHT22;12242;50.952;4.678;2023-07-13T12:15:43;24.20;96.10
24035;DHT22;12242;50.952;4.678;2023-07-13T12:18:17;23.90;97.80
24035;DHT22;12242;50.952;4.678;2023-07-13T12:20:46;23.70;98.80
24035;DHT22;12242;50.952;4.678;2023-07-13T12:23:28;22.60;99.90
24035;DHT22;12242;50.952;4.678;2023-07-13T12:25:57;22.00;99.90
24035;DHT22;12242;50.952;4.678;2023-07-13T12:28:49;21.70;99.90
24035;DHT22;12242;50.952;4.678;2023-07-13T12:34:06;22.40;99.90
24035;DHT22;12242;50.952;4.678;2023-07-13T12:36:36;22.30;99.90
24035;DHT22;12242;50.952;4.678;2023-07-13T12:39:34;22.60;99.90
24035;DHT22;12242;50.952;4.678;2023-07-13T12:44:40;21.80;99.90
24035;DHT22;12242;50.952;4.678;2023-07-13T12:47:13;21.00;99.90
24035;DHT22;12242;50.952;4.678;2023-07-13T12:49:47;20.80;99.90
